Time;durP1;ratioP1;P1;durP2;ratioP2;P2;SDS_P1;SDS_P2;PMS_P1;PMS_P2;Temp;Humidity;BMP_temperature;BMP_pressure;BME280_temperature;BME280_humidity;BME280_pressure;Samples;Min_cycle;Max_cycle;Signal;HPM_P1;HPM_P2
2021/11/01 00:01:53;;;;;;;5.50;5.07;;;;;;;4.52;87.50;100685.47;6211691;23;20020;-73
2021/11/01 00:04:20;;;;;;;4.15;3.92;;;;;;;4.50;87.90;100692.41;6211756;23;20044;-72
2021/11/01 00:06:46;;;;;;;8.98;3.70;;;;;;;4.46;87.82;100686.44;6209933;23;20020;-73
2021/11/01 00:09:12;;;;;;;4.57;4.35;;;;;;;4.45;88.63;100687.31;6210020;23;20017;-74
2021/11/01 00:11:39;;;;;;;4.82;4.40;;;;;;;4.37;88.65;100686.59;6211500;23;20070;-71
2021/11/01 00:14:05;;;;;;;3.60;3.40;;;;;;;4.42;88.73;100679.59;6211625;23;20020;-72
2021/11/01 00:16:31;;;;;;;3.15;3.05;;;;;;;4.41;88.29;100687.41;6211176;23;20361;-73
2021/11/01 00:18:57;;;;;;;5.20;4.80;;;;;;;4.31;88.47;100681.53;6211560;23;20028;-74
2021/11/01 00:21:24;;;;;;;9.45;3.90;;;;;;;4.20;88.52;100678.25;6210062;23;20020;-73
2021/11/01 00:23:51;;;;;;;4.45;4.03;;;;;;;4.30;89.62;100689.28;6212334;23;20107;-74
2021/11/01 00:26:17;;;;;;;3.95;3.65;;;;;;;4.24;89.32;100689.41;6213005;23;20606;-73
2021/11/01 00:28:44;;;;;;;4.60;4.38;;;;;;;4.33;89.25;100690.09;6211586;23;20023;-74
2021/11/01 00:31:11;;;;;;;3.47;3.35;;;;;;;4.23;89.15;100688.53;6211631;23;20043;-73
2021/11/01 00:33:37;;;;;;;11.60;5.93;;;;;;;4.31;88.76;100688.41;6211213;23;20047;-72
2021/11/01 00:36:03;;;;;;;4.60;4.28;;;;;;;4.28;89.11;100685.88;6211687;23;20020;-75
2021/11/01 00:38:29;;;;;;;8.52;5.00;;;;;;;4.29;89.35;100688.44;6211015;23;20521;-73
2021/11/01 00:40:55;;;;;;;5.05;4.75;;;;;;;4.22;88.98;100692.84;6211558;23;20364;-73
2021/11/01 00:43:21;;;;;;;20.25;6.47;;;;;;;4.20;89.30;100694.59;6211213;23;20020;-74
2021/11/01 00:45:48;;;;;;;2.78;2.67;;;;;;;4.28;89.50;100685.88;6231456;23;20479;-73
2021/11/01 00:48:15;;;;;;;15.07;8.18;;;;;;;4.28;88.91;100691.06;6241672;23;20103;-73
2021/11/01 00:50:42;;;;;;;4.95;4.75;;;;;;;4.22;89.16;100691.16;6214990;23;20024;-73
2021/11/01 00:53:08;;;;;;;5.85;5.55;;;;;;;4.13;89.33;100690.41;6241428;23;20059;-73
2021/11/01 00:55:49;;;;;;;6.05;4.85;;;;;;;4.10;89.70;100689.59;6214774;23;20019;-73
2021/11/01 00:58:21;;;;;;;5.37;4.97;;;;;;;4.04;89.50;100693.13;6214821;23;20411;-73
2021/11/01 01:00:47;;;;;;;6.65;6.10;;;;;;;4.09;89.99;100688.75;6190021;23;20484;-74
2021/11/01 01:03:13;;;;;;;4.57;4.20;;;;;;;4.07;89.63;100693.09;6215087;23;20531;-73
2021/11/01 01:05:42;;;;;;;5.72;5.28;;;;;;;4.03;89.27;100695.72;6241352;23;20027;-72
2021/11/01 01:08:08;;;;;;;6.22;5.63;;;;;;;4.01;89.54;100693.19;6215833;23;20020;-74
2021/11/01 01:10:34;;;;;;;6.07;5.68;;;;;;;3.95;89.38;100695.00;6241485;23;20046;-72
2021/11/01 01:13:00;;;;;;;5.68;5.22;;;;;;;4.04;89.99;100693.13;6241658;23;20020;-73
2021/11/01 01:15:29;;;;;;;8.25;5.43;;;;;;;4.08;89.70;100688.78;6241577;23;20022;-73
2021/11/01 01:18:03;;;;;;;6.30;5.78;;;;;;;4.12;89.95;100688.69;6215624;23;20070;-73
2021/11/01 01:20:29;;;;;;;6.45;3.45;;;;;;;4.09;90.12;100681.00;6214627;23;20020;-74
2021/11/01 01:22:55;;;;;;;10.65;5.00;;;;;;;4.13;89.57;100687.81;6241889;23;20415;-73
2021/11/01 01:25:32;;;;;;;4.82;4.57;;;;;;;4.01;89.77;100682.00;6165683;23;20016;-73
2021/11/01 01:27:59;;;;;;;5.97;3.80;;;;;;;4.03;89.38;100681.09;6224410;23;20024;-74
2021/11/01 01:30:25;;;;;;;5.10;4.68;;;;;;;3.95;89.64;100676.94;6228669;23;20074;-72
2021/11/01 01:32:51;;;;;;;4.95;4.57;;;;;;;3.92;90.23;100679.56;6254376;23;20051;-73
2021/11/01 01:35:17;;;;;;;3.42;3.30;;;;;;;3.93;90.08;100673.50;6217454;23;20016;-74
2021/11/01 01:37:44;;;;;;;3.60;3.40;;;;;;;3.90;90.45;100669.22;6243551;23;20020;-73
2021/11/01 01:40:11;;;;;;;6.22;5.68;;;;;;;3.88;89.92;100676.16;6243433;23;20020;-72
2021/11/01 01:42:38;;;;;;;5.47;3.67;;;;;;;3.84;90.42;100673.63;6216726;23;20023;-73
2021/11/01 01:45:04;;;;;;;4.32;4.13;;;;;;;3.78;89.96;100669.41;6243208;23;20020;-73
2021/11/01 01:47:30;;;;;;;13.00;4.68;;;;;;;3.80;90.58;100672.81;6191641;23;20016;-73
2021/11/01 01:49:57;;;;;;;5.13;3.75;;;;;;;3.74;90.71;100672.91;6243279;23;20023;-73
2021/11/01 01:52:23;;;;;;;3.63;3.47;;;;;;;3.85;90.74;100678.78;6216617;23;20016;-73
2021/11/01 01:54:49;;;;;;;8.07;6.03;;;;;;;3.76;90.41;100671.19;6242939;23;20027;-73
2021/11/01 01:57:15;;;;;;;8.07;4.80;;;;;;;3.81;90.98;100679.69;6243345;23;20020;-74
2021/11/01 01:59:43;;;;;;;8.38;4.18;;;;;;;3.85;90.81;100678.78;6242826;23;20103;-76
2021/11/01 02:02:09;;;;;;;25.33;4.80;;;;;;;3.74;90.35;100677.22;6243121;23;20026;-72
2021/11/01 02:04:35;;;;;;;3.88;3.75;;;;;;;3.71;90.27;100683.28;6216206;23;20035;-72
2021/11/01 02:07:14;;;;;;;5.90;3.88;;;;;;;3.74;90.93;100683.25;6243345;23;20016;-74
2021/11/01 02:09:57;;;;;;;4.70;4.40;;;;;;;3.80;90.91;100682.28;6216263;23;20023;-73
2021/11/01 02:12:29;;;;;;;4.78;4.35;;;;;;;3.75;90.31;100682.38;6219739;23;20022;-73
2021/11/01 02:14:58;;;;;;;6.30;5.90;;;;;;;3.74;90.42;100683.25;6216042;23;20022;-74
2021/11/01 02:17:26;;;;;;;3.30;3.20;;;;;;;3.79;90.94;100680.59;6243020;23;20345;-73
2021/11/01 02:19:53;;;;;;;5.43;4.50;;;;;;;3.73;90.56;100688.44;6216352;23;20476;-74
2021/11/01 02:22:30;;;;;;;6.90;5.80;;;;;;;3.79;91.10;100686.63;6191393;23;20035;-73
2021/11/01 02:25:01;;;;;;;13.13;4.15;;;;;;;3.64;90.46;100676.50;6242906;23;20022;-72
2021/11/01 02:27:30;;;;;;;4.70;4.35;;;;;;;3.77;90.26;100693.53;6216554;23;20411;-71
2021/11/01 02:29:56;;;;;;;4.88;4.60;;;;;;;3.73;90.87;100686.69;6216434;23;20020;-74
2021/11/01 02:32:22;;;;;;;5.00;3.33;;;;;;;3.61;90.63;100690.31;6216322;23;20050;-73
2021/11/01 02:34:49;;;;;;;7.50;4.75;;;;;;;3.66;90.48;100685.09;6191177;23;20417;-73
2021/11/01 02:37:15;;;;;;;6.35;4.22;;;;;;;3.63;90.52;100691.13;6216008;23;20055;-73
2021/11/01 02:40:00;;;;;;;8.23;5.60;;;;;;;3.58;90.74;100684.31;6215847;23;20020;-73
2021/11/01 02:42:27;;;;;;;4.40;4.15;;;;;;;3.66;90.71;100685.09;6242813;23;20024;-74
2021/11/01 02:44:58;;;;;;;4.15;3.10;;;;;;;3.59;91.18;100684.31;6217877;23;20099;-73
2021/11/01 02:47:25;;;;;;;3.55;3.35;;;;;;;3.57;91.27;100691.19;6243495;23;20066;-75
2021/11/01 02:49:52;;;;;;;5.38;4.97;;;;;;;3.56;91.12;100679.19;6190827;23;20104;-74
2021/11/01 02:52:21;;;;;;;5.95;4.13;;;;;;;3.55;91.58;100682.63;6216173;23;20027;-73
2021/11/01 02:54:48;;;;;;;4.82;4.18;;;;;;;3.57;91.60;100685.19;6242368;23;20043;-74
2021/11/01 02:57:15;;;;;;;10.68;5.70;;;;;;;3.60;91.65;100688.59;6191211;23;20016;-73
2021/11/01 02:59:42;;;;;;;6.53;6.03;;;;;;;3.53;91.16;100680.97;6215146;23;20411;-73
2021/11/01 03:02:08;;;;;;;4.43;4.13;;;;;;;3.53;91.36;100683.53;6242436;23;20020;-74
2021/11/01 03:04:34;;;;;;;11.73;5.57;;;;;;;3.56;91.07;100688.66;6242135;23;20026;-74
2021/11/01 03:07:01;;;;;;;6.20;5.55;;;;;;;3.55;90.87;100680.06;6243473;23;20016;-74
2021/11/01 03:09:31;;;;;;;9.45;4.93;;;;;;;3.50;91.11;100679.25;6215893;23;20103;-73
2021/11/01 03:12:02;;;;;;;7.72;7.03;;;;;;;3.52;91.69;100684.41;6242363;23;20016;-75
2021/11/01 03:14:29;;;;;;;;;;;;;;;3.55;91.46;100681.78;6242769;23;20027;-73
2021/11/01 03:16:58;;;;;;;5.13;4.80;;;;;;;3.53;91.01;100679.22;6189958;23;19915;-73
2021/11/01 03:19:24;;;;;;;3.70;3.55;;;;;;;3.53;91.47;100686.94;6190633;23;20016;-73
2021/11/01 03:21:50;;;;;;;8.95;8.25;;;;;;;3.55;91.09;100682.63;6190473;23;20329;-72
2021/11/01 03:24:16;;;;;;;12.35;5.53;;;;;;;3.56;91.50;100683.50;6190722;23;20403;-72
2021/11/01 03:26:46;;;;;;;5.72;5.25;;;;;;;3.58;91.03;100681.75;6242063;23;20073;-73
2021/11/01 03:29:12;;;;;;;11.23;5.47;;;;;;;3.58;91.47;100681.75;6215330;23;20016;-72
2021/11/01 03:31:39;;;;;;;4.35;4.15;;;;;;;3.61;91.30;100676.53;6215227;23;20016;-73
2021/11/01 03:34:06;;;;;;;4.78;4.47;;;;;;;3.57;90.81;100674.84;6190846;23;20020;-74
2021/11/01 03:36:32;;;;;;;11.27;5.72;;;;;;;3.51;90.97;100664.63;6215309;23;20023;-74
2021/11/01 03:38:59;;;;;;;5.70;5.30;;;;;;;3.55;90.81;100671.47;6189882;23;20077;-73
2021/11/01 03:41:26;;;;;;;6.75;5.30;;;;;;;3.54;91.46;100669.75;6215272;23;20120;-74
2021/11/01 03:43:59;;;;;;;4.05;3.75;;;;;;;3.56;91.30;100671.44;6241662;23;20016;-74
2021/11/01 03:46:53;;;;;;;7.10;5.78;;;;;;;3.54;90.83;100674.91;6216400;23;20345;-73
2021/11/01 03:49:13;;;;;;;6.35;5.72;;;;;;;3.47;91.28;100668.09;6219730;23;20016;-73
2021/11/01 03:54:07;;;;;;;7.07;6.53;;;;;;;3.51;91.48;100667.19;6216231;23;20016;-74
2021/11/01 03:56:35;;;;;;;5.93;5.55;;;;;;;3.48;91.03;100662.09;6215376;23;20026;-74
2021/11/01 03:59:01;;;;;;;9.90;7.60;;;;;;;3.54;90.93;100662.84;6190971;23;20074;-74
2021/11/01 04:01:28;;;;;;;4.00;3.60;;;;;;;3.54;91.33;100669.75;6215364;23;20091;-75
2021/11/01 04:03:54;;;;;;;14.35;7.38;;;;;;;3.54;91.53;100667.16;6190196;23;20352;-76
2021/11/01 04:06:22;;;;;;;6.93;6.30;;;;;;;3.50;90.96;100668.09;6215227;23;20090;-73
2021/11/01 04:08:49;;;;;;;10.50;6.95;;;;;;;3.55;91.50;100662.00;6215050;23;20016;-73
2021/11/01 04:11:22;;;;;;;11.68;5.20;;;;;;;3.52;91.41;100656.00;6241817;23;20174;-74
2021/11/01 04:13:51;;;;;;;5.72;5.20;;;;;;;3.51;91.34;100662.03;6215083;23;20368;-74
2021/11/01 04:16:21;;;;;;;6.90;4.90;;;;;;;3.48;91.50;100654.34;6214929;23;20107;-72
2021/11/01 04:21:49;;;;;;;5.07;4.68;;;;;;;3.45;90.77;100654.38;6117968;23;20060;-72
2021/11/01 04:24:16;;;;;;;11.20;6.60;;;;;;;3.49;90.91;100661.22;6190883;23;20103;-73
2021/11/01 04:26:43;;;;;;;5.10;4.65;;;;;;;3.43;91.21;100654.41;6241517;23;20039;-72
2021/11/01 04:29:10;;;;;;;9.48;7.85;;;;;;;3.43;91.34;100659.59;6190364;23;20043;-73
2021/11/01 04:31:38;;;;;;;5.40;5.00;;;;;;;3.37;91.17;100656.22;6241708;23;20026;-74
2021/11/01 04:34:49;;;;;;;5.88;5.43;;;;;;;3.37;91.04;100658.81;6241797;23;20023;-73
2021/11/01 04:36:56;;;;;;;6.50;5.07;;;;;;;3.32;91.40;100658.00;6225657;23;20020;-74
2021/11/01 04:39:37;;;;;;;3.63;3.45;;;;;;;3.35;91.40;100655.38;6241723;23;20023;-74
2021/11/01 04:55:17;;;;;;;14.02;6.55;;;;;;;3.44;91.26;100663.00;6241449;23;20020;-75
2021/11/01 04:57:43;;;;;;;5.97;4.18;;;;;;;3.49;91.26;100662.06;6189318;23;20024;-74
2021/11/01 05:00:10;;;;;;;5.03;4.82;;;;;;;3.52;91.04;100666.34;6241640;23;20028;-73
2021/11/01 05:02:41;;;;;;;4.22;4.03;;;;;;;3.61;90.86;100663.63;6242839;23;20367;-75
2021/11/01 05:05:08;;;;;;;4.78;4.38;;;;;;;3.87;90.78;100658.09;6245405;23;20020;-74
2021/11/01 05:07:34;;;;;;;9.43;4.40;;;;;;;4.20;88.81;100658.44;6244455;23;20368;-75
2021/11/01 05:10:07;;;;;;;5.28;4.85;;;;;;;4.47;87.18;100666.63;6243429;23;20181;-73
2021/11/01 05:12:41;;;;;;;5.00;4.70;;;;;;;4.79;86.46;100669.47;6217017;23;20023;-76
2021/11/01 05:15:13;;;;;;;3.83;3.70;;;;;;;5.01;84.44;100673.38;6244354;23;20433;-75
2021/11/01 05:20:29;;;;;;;5.55;5.22;;;;;;;5.40;81.54;100673.47;6225797;23;20058;-73
2021/11/01 05:23:13;;;;;;;6.07;5.40;;;;;;;5.33;81.71;100679.66;6254396;23;20024;-74
2021/11/01 05:26:04;;;;;;;3.42;3.22;;;;;;;5.16;82.26;100670.50;6244673;23;20031;-75
2021/11/01 05:28:44;;;;;;;5.10;4.90;;;;;;;5.50;80.98;100673.22;6217120;23;20410;-76
2021/11/01 05:31:30;;;;;;;8.00;5.30;;;;;;;6.06;79.19;100666.84;6244804;23;20023;-75
2021/11/01 05:34:04;;;;;;;4.68;4.43;;;;;;;5.97;78.82;100682.59;6242948;23;20078;-75
2021/11/01 05:36:30;;;;;;;3.78;3.65;;;;;;;6.01;78.25;100681.66;6191780;23;20411;-76
2021/11/01 05:38:57;;;;;;;11.75;4.13;;;;;;;6.17;77.67;100676.97;6216624;23;20467;-79
2021/11/01 05:41:24;;;;;;;5.35;4.93;;;;;;;5.80;78.51;100687.25;6243758;23;20015;-81
2021/11/01 05:43:50;;;;;;;4.38;4.10;;;;;;;5.84;79.14;100683.72;6244254;23;20030;-80
2021/11/01 05:46:17;;;;;;;12.23;4.75;;;;;;;5.84;78.00;100690.66;6245771;23;20016;-77
2021/11/01 05:48:54;;;;;;;6.70;6.07;;;;;;;6.54;76.55;100680.38;6218109;23;20016;-76
2021/11/01 05:51:22;;;;;;;10.20;4.57;;;;;;;6.81;74.65;100669.25;6246700;23;20157;-76
2021/11/01 05:53:57;;;;;;;5.65;5.10;;;;;;;6.68;74.99;100677.41;6244711;23;20020;-73
2021/11/01 05:56:35;;;;;;;9.50;7.22;;;;;;;6.87;74.00;100673.47;6244125;23;20023;-74
2021/11/01 06:09:56;;;;;;;5.53;5.13;;;;;;;8.42;68.49;100663.63;6220639;23;20024;-74
2021/11/01 06:15:04;;;;;;;11.40;6.30;;;;;;;8.71;66.96;100681.72;6219965;23;20094;-73
2021/11/01 06:17:32;;;;;;;7.63;6.15;;;;;;;7.77;70.55;100679.53;6242968;23;20070;-76
2021/11/01 06:19:59;;;;;;;5.50;5.10;;;;;;;7.67;70.90;100683.28;6216362;23;20020;-74
2021/11/01 06:22:25;;;;;;;6.43;6.03;;;;;;;7.84;70.83;100686.25;6215849;23;20020;-72
2021/11/01 06:24:53;;;;;;;6.22;5.72;;;;;;;7.67;70.53;100685.88;6213835;23;20016;-73
2021/11/01 06:27:21;;;;;;;10.88;5.80;;;;;;;7.77;70.92;100690.78;6216455;23;20039;-75
2021/11/01 06:32:59;;;;;;;11.00;6.57;;;;;;;8.44;69.50;100688.72;6238849;23;20042;-74
2021/11/01 06:44:18;;;;;;;10.35;6.25;;;;;;;9.18;65.66;100686.13;6169734;23;20024;-75
2021/11/01 06:57:31;;;;;;;6.03;5.63;;;;;;;9.18;66.59;100688.72;6241905;23;20073;-74
2021/11/01 07:16:25;;;;;;;6.57;6.00;;;;;;;9.26;66.70;100686.69;6242095;23;20026;-75
2021/11/01 08:22:43;;;;;;;12.32;7.88;;;;;;;12.00;57.25;100679.56;6216027;23;20016;-75
2021/11/01 08:26:08;;;;;;;14.85;8.25;;;;;;;12.83;54.87;100679.81;6240568;23;20016;-74
2021/11/01 08:28:14;;;;;;;16.80;8.63;;;;;;;11.68;58.30;100680.19;6231321;23;20031;-74
2021/11/01 08:50:46;;;;;;;18.92;6.00;;;;;;;10.20;63.75;100688.34;6213392;23;20047;-75
2021/11/01 09:09:55;;;;;;;10.18;7.32;;;;;;;7.91;73.03;100687.75;6217879;23;20024;-74
2021/11/01 09:24:45;;;;;;;7.53;6.70;;;;;;;7.76;73.38;100681.25;6241093;23;20070;-73
2021/11/01 09:27:16;;;;;;;7.38;6.78;;;;;;;7.86;72.91;100680.09;6216716;23;20811;-73
2021/11/01 09:38:08;;;;;;;6.70;5.63;;;;;;;8.23;72.09;100682.41;6240946;23;20023;-74
2021/11/01 09:40:56;;;;;;;6.57;6.13;;;;;;;8.12;72.21;100678.44;6241062;23;20020;-74
2021/11/01 09:43:24;;;;;;;10.45;5.22;;;;;;;8.18;71.63;100679.09;6241267;23;20081;-74
2021/11/01 09:45:57;;;;;;;12.20;6.10;;;;;;;8.09;71.81;100670.72;6241341;23;20016;-75
2021/11/01 09:48:24;;;;;;;7.28;5.82;;;;;;;8.12;72.79;100671.47;6214341;23;20111;-74
2021/11/01 09:50:51;;;;;;;7.75;7.25;;;;;;;8.13;71.52;100668.00;6217267;23;20496;-74
2021/11/01 09:53:27;;;;;;;16.98;5.55;;;;;;;8.15;71.47;100675.72;6216404;23;20452;-74
2021/11/01 10:01:15;;;;;;;5.00;4.60;;;;;;;8.16;70.71;100675.69;6198373;23;20023;-75
2021/11/01 10:03:43;;;;;;;8.55;7.55;;;;;;;8.16;70.82;100673.09;6242585;23;20367;-73
2021/11/01 10:06:13;;;;;;;4.68;4.40;;;;;;;8.40;70.35;100665.44;6216171;23;20020;-72
2021/11/01 10:08:40;;;;;;;23.55;5.57;;;;;;;8.43;70.14;100660.13;6216492;23;20015;-76
2021/11/01 10:14:13;;;;;;;8.10;5.60;;;;;;;8.46;70.13;100667.81;6242940;23;20023;-74
2021/11/01 10:19:36;;;;;;;5.45;4.88;;;;;;;8.38;70.23;100666.31;6242504;23;20103;-74
2021/11/01 10:22:12;;;;;;;9.88;5.80;;;;;;;8.42;69.95;100667.06;6242525;23;20016;-73
2021/11/01 10:24:41;;;;;;;7.70;6.05;;;;;;;8.49;70.07;100662.50;6216063;23;20020;-73
2021/11/01 10:27:12;;;;;;;12.77;5.78;;;;;;;8.73;69.14;100659.09;6241673;23;20086;-74
2021/11/01 10:29:49;;;;;;;5.72;5.32;;;;;;;8.73;69.83;100659.94;6191436;23;20015;-74
2021/11/01 10:32:25;;;;;;;22.92;7.82;;;;;;;8.79;69.71;100654.53;6241909;23;20028;-74
2021/11/01 10:35:03;;;;;;;3.88;3.75;;;;;;;8.85;68.89;100653.47;6190637;23;20020;-74
2021/11/01 10:37:30;;;;;;;15.95;6.35;;;;;;;8.78;69.48;100657.16;6242527;23;20431;-75
2021/11/01 10:39:56;;;;;;;5.93;4.95;;;;;;;8.87;69.20;100651.63;6242428;23;20023;-73
2021/11/01 10:42:30;;;;;;;6.10;5.65;;;;;;;8.96;68.99;100650.47;6215749;23;20118;-74
2021/11/01 10:45:35;;;;;;;11.10;5.97;;;;;;;8.98;68.75;100654.72;6242308;23;20023;-75
2021/11/01 11:11:30;;;;;;;7.95;6.65;;;;;;;9.40;67.76;100627.09;6219952;23;20460;-76
2021/11/01 11:19:29;;;;;;;8.45;4.88;;;;;;;9.64;67.26;100614.03;6242046;23;20012;-76
2021/11/01 11:22:12;;;;;;;5.50;5.20;;;;;;;9.64;67.59;100619.25;6193904;23;20035;-73
2021/11/01 11:47:51;;;;;;;6.95;3.13;;;;;;;10.03;64.19;100601.19;6101546;23;20021;-75
2021/11/01 11:50:19;;;;;;;4.40;4.00;;;;;;;10.11;64.01;100594.72;6077613;23;20018;-75
2021/11/01 11:52:47;;;;;;;3.33;3.13;;;;;;;10.19;64.05;100586.63;6152970;23;20370;-75
2021/11/01 11:55:36;;;;;;;4.85;3.92;;;;;;;10.20;63.77;100589.19;6169281;23;20020;-74
2021/11/01 11:58:17;;;;;;;3.30;3.20;;;;;;;10.18;63.42;100585.78;6174720;23;20023;-72
2021/11/01 12:01:01;;;;;;;3.63;3.33;;;;;;;10.14;63.62;100594.66;6165755;23;20027;-75
2021/11/01 12:03:48;;;;;;;5.35;4.53;;;;;;;10.17;63.62;100586.72;6219876;23;20049;-73
2021/11/01 12:19:37;;;;;;;3.00;2.80;;;;;;;10.08;63.29;100589.63;6090311;23;20050;-73
2021/11/01 12:23:03;;;;;;;4.32;4.07;;;;;;;10.02;63.63;100579.47;6225538;23;20012;-74
2021/11/01 12:25:43;;;;;;;4.25;4.00;;;;;;;9.82;63.79;100559.41;6098577;23;20019;-73
2021/11/01 12:28:16;;;;;;;8.20;5.05;;;;;;;9.82;63.53;100561.16;6190570;23;20411;-74
2021/11/01 12:30:58;;;;;;;4.85;4.53;;;;;;;9.92;63.72;100583.34;6190723;23;20110;-74
2021/11/01 12:33:38;;;;;;;4.18;3.88;;;;;;;9.72;64.50;100554.59;6192017;23;20523;-73
2021/11/01 12:36:28;;;;;;;4.38;3.85;;;;;;;9.86;64.62;100586.22;6165786;23;20023;-74
2021/11/01 12:39:11;;;;;;;8.15;6.30;;;;;;;9.86;64.78;100578.38;6216854;23;20044;-74
2021/11/01 12:57:35;;;;;;;6.45;5.95;;;;;;;9.57;65.68;100589.13;6095879;23;20014;-73
2021/11/01 13:00:20;;;;;;;4.20;3.90;;;;;;;9.52;66.12;100589.28;6137885;23;20023;-75
2021/11/01 13:02:51;;;;;;;5.85;5.28;;;;;;;9.46;65.80;100584.31;6218582;23;20020;-74
2021/11/01 13:05:24;;;;;;;16.17;4.65;;;;;;;9.36;65.85;100580.34;6190593;23;20452;-74
2021/11/01 13:08:03;;;;;;;5.70;5.18;;;;;;;9.31;65.80;100575.34;6242688;23;20428;-73
2021/11/01 13:11:03;;;;;;;5.07;3.95;;;;;;;9.18;66.68;100563.69;6171335;23;20115;-74
2021/11/01 13:19:23;;;;;;;5.15;4.80;;;;;;;9.11;67.24;100583.06;6177849;23;20026;-74
2021/11/01 13:22:14;;;;;;;4.35;3.83;;;;;;;9.04;67.60;100580.72;6215300;23;20079;-73
2021/11/01 13:37:34;;;;;;;4.15;3.85;;;;;;;8.43;69.78;100574.25;6171693;23;20024;-75
2021/11/01 13:40:08;;;;;;;10.23;5.55;;;;;;;8.39;69.64;100591.72;6218916;23;20027;-74
2021/11/01 13:42:45;;;;;;;5.10;4.80;;;;;;;8.21;70.82;100597.53;6192551;23;20123;-76
2021/11/01 13:45:16;;;;;;;9.25;4.82;;;;;;;7.99;70.94;100592.16;6213211;23;20048;-73
2021/11/01 13:47:51;;;;;;;6.40;5.80;;;;;;;7.71;71.28;100566.22;6191517;23;20078;-73
2021/11/01 13:50:28;;;;;;;2.92;2.83;;;;;;;7.68;72.58;100588.84;6217504;23;20334;-72
2021/11/01 13:53:12;;;;;;;5.05;4.55;;;;;;;7.54;73.26;100591.88;6219116;23;20016;-73
2021/11/01 13:56:23;;;;;;;18.42;10.93;;;;;;;7.52;73.12;100574.63;6243347;23;20027;-72
2021/11/01 13:59:10;;;;;;;28.70;15.35;;;;;;;7.46;73.57;100593.84;6243819;23;20562;-73
2021/11/01 14:01:45;;;;;;;17.15;12.70;;;;;;;7.31;74.45;100594.31;6195836;23;20115;-74
2021/11/01 14:16:21;;;;;;;14.80;11.10;;;;;;;6.57;77.79;100588.63;6164290;23;20447;-74
2021/11/01 14:19:05;;;;;;;8.93;6.43;;;;;;;6.54;78.10;100555.84;6190860;23;20016;-73
2021/11/01 14:31:00;;;;;;;6.32;5.25;;;;;;;6.44;79.58;100589.84;6192523;23;20027;-74
2021/11/01 15:10:57;;;;;;;4.63;4.22;;;;;;;5.91;81.81;100592.06;6219218;23;20020;-75
2021/11/01 15:13:36;;;;;;;6.72;6.18;;;;;;;5.57;82.24;100563.47;6214838;23;20254;-72
2021/11/01 15:24:21;;;;;;;6.68;6.28;;;;;;;5.40;84.06;100586.28;6243135;23;20020;-75
2021/11/01 15:33:23;;;;;;;11.27;7.45;;;;;;;5.19;83.63;100592.78;6216185;23;20024;-73
2021/11/01 15:39:17;;;;;;;8.82;8.23;;;;;;;4.63;85.16;100552.53;6212983;23;20106;-73
2021/11/01 16:18:02;;;;;;;19.48;10.13;;;;;;;4.62;87.19;100568.06;6150164;23;20023;-79
2021/11/01 16:20:25;;;;;;;21.10;11.32;;;;;;;4.49;86.63;100561.44;6201709;23;20023;-78
2021/11/01 16:26:24;;;;;;;8.32;7.53;;;;;;;4.58;87.50;100576.81;6191789;23;20023;-79
2021/11/01 16:29:17;;;;;;;16.67;7.88;;;;;;;4.67;86.85;100582.66;6209941;23;20024;-78
2021/11/01 16:32:32;;;;;;;8.70;8.05;;;;;;;5.02;85.95;100568.13;6167481;23;20103;-76
2021/11/01 16:39:05;;;;;;;7.22;6.65;;;;;;;5.54;82.55;100579.06;6214045;23;20048;-77
2021/11/01 16:42:09;;;;;;;6.68;6.13;;;;;;;5.20;83.87;100532.34;6212018;23;20166;-76
2021/11/01 16:44:43;;;;;;;7.00;6.32;;;;;;;5.59;83.47;100587.59;6159270;23;20020;-79
2021/11/01 16:47:15;;;;;;;11.23;7.55;;;;;;;5.64;83.77;100584.88;6186567;23;20461;-76
2021/11/01 16:49:54;;;;;;;6.35;5.55;;;;;;;5.72;82.66;100565.72;6187918;23;20022;-76
2021/11/01 17:04:10;;;;;;;7.25;6.68;;;;;;;5.45;82.86;100597.41;6162466;23;20021;-77
2021/11/01 17:06:48;;;;;;;6.78;6.13;;;;;;;5.07;83.70;100556.81;6144818;23;20021;-76
2021/11/01 17:22:12;;;;;;;6.90;6.13;;;;;;;4.61;85.82;100566.41;6209534;23;20028;-77
2021/11/01 17:24:52;;;;;;;6.20;5.88;;;;;;;4.65;86.30;100599.03;6209986;23;20020;-77
2021/11/01 17:27:47;;;;;;;6.88;6.38;;;;;;;4.47;86.83;100589.91;6209549;23;20044;-76
2021/11/01 17:30:39;;;;;;;7.97;7.38;;;;;;;4.61;87.75;100602.59;6212718;23;20120;-77
2021/11/01 17:36:27;;;;;;;6.38;5.97;;;;;;;4.72;87.49;100596.31;6210862;23;20055;-77
2021/11/01 18:52:09;;;;;;;5.88;5.57;;;;;;;3.11;90.73;100603.22;6240632;23;20047;-76
2021/11/01 18:54:44;;;;;;;5.93;5.43;;;;;;;3.14;91.05;100604.91;6189892;23;20088;-74
2021/11/01 18:57:12;;;;;;;5.07;4.78;;;;;;;3.15;91.45;100604.88;6240419;23;20039;-75
2021/11/01 18:59:43;;;;;;;9.45;6.22;;;;;;;2.95;91.58;100601.69;6213950;23;20107;-74
2021/11/01 19:02:35;;;;;;;9.85;7.25;;;;;;;2.87;91.22;100607.81;6189360;23;20023;-76
2021/11/01 19:07:48;;;;;;;5.20;4.85;;;;;;;3.40;92.10;100614.91;6211727;23;20020;-77
2021/11/01 20:14:41;;;;;;;6.20;5.78;;;;;;;2.57;92.28;100648.53;6240890;23;20078;-75
2021/11/01 21:26:59;;;;;;;12.00;6.13;;;;;;;2.27;93.59;100665.97;6241770;23;20012;-77
2021/11/01 21:29:29;;;;;;;7.00;4.68;;;;;;;2.36;93.56;100676.19;6214663;23;20430;-76
2021/11/01 21:31:55;;;;;;;5.07;4.57;;;;;;;2.43;93.81;100670.97;6242099;23;20020;-77
2021/11/01 21:34:36;;;;;;;8.00;7.18;;;;;;;2.25;93.96;100671.16;6214573;23;20020;-78
2021/11/01 21:37:04;;;;;;;7.20;6.73;;;;;;;1.92;93.80;100671.38;6241688;23;20486;-78
2021/11/01 21:39:30;;;;;;;7.32;6.82;;;;;;;1.77;93.82;100674.91;6241399;23;20027;-76
2021/11/01 21:41:57;;;;;;;7.60;7.10;;;;;;;2.02;93.90;100670.47;6241321;23;20388;-77
2021/11/01 21:44:25;;;;;;;8.13;7.57;;;;;;;2.12;93.75;100660.94;6214467;23;20520;-78
2021/11/01 21:46:51;;;;;;;9.45;8.55;;;;;;;1.98;93.95;100656.75;6216857;23;20047;-77
2021/11/01 21:49:18;;;;;;;9.73;8.32;;;;;;;1.77;93.95;100664.59;6219022;23;20016;-79
2021/11/01 21:51:44;;;;;;;7.88;7.35;;;;;;;2.24;93.95;100655.69;6219494;23;20016;-78
2021/11/01 21:54:33;;;;;;;11.13;7.45;;;;;;;2.17;94.23;100654.03;6243574;23;20039;-79
2021/11/01 21:57:10;;;;;;;30.25;7.82;;;;;;;2.39;94.43;100650.41;6220667;23;20019;-76
2021/11/01 22:26:34;;;;;;;7.30;6.45;;;;;;;1.01;94.07;100659.00;6216152;23;20043;-80
2021/11/01 22:40:25;;;;;;;6.25;5.93;;;;;;;0.66;93.87;100651.34;6216376;23;20457;-77
2021/11/01 22:45:55;;;;;;;8.00;7.45;;;;;;;0.76;93.91;100645.34;6215800;23;20016;-76
2021/11/01 22:56:52;;;;;;;8.30;5.78;;;;;;;0.68;93.69;100643.66;6215881;23;20023;-78
2021/11/01 22:59:18;;;;;;;11.32;7.78;;;;;;;0.79;93.97;100642.75;6242498;23;20452;-78
2021/11/01 23:01:47;;;;;;;4.18;3.97;;;;;;;0.79;94.32;100639.31;6244201;23;20027;-77
2021/11/01 23:29:14;;;;;;;7.93;7.47;;;;;;;0.70;94.01;100647.06;6242912;23;20128;-76
2021/11/01 23:31:57;;;;;;;6.75;6.28;;;;;;;-0.37;94.15;100651.38;6201522;23;20017;-77
2021/11/01 23:34:24;;;;;;;23.48;7.93;;;;;;;-0.74;93.76;100646.97;6256522;23;20038;-76
2021/11/01 23:36:50;;;;;;;9.70;5.53;;;;;;;-0.83;93.71;100654.63;6227900;23;20038;-76
2021/11/01 23:39:16;;;;;;;135.48;13.77;;;;;;;-1.07;93.96;100650.25;6191690;23;20024;-77
2021/11/01 23:41:44;;;;;;;173.75;16.98;;;;;;;-1.20;100.00;100664.72;6191105;23;20471;-77
